Time;durP1;ratioP1;P1;durP2;ratioP2;P2;SDS_P1;SDS_P2;PMS_P1;PMS_P2;Temp;Humidity;BMP_temperature;BMP_pressure;BME280_temperature;BME280_humidity;BME280_pressure;Samples;Min_cycle;Max_cycle;Signal;HPM_P1;HPM_P2
2021/11/18 00:00:43;;;;;;;;;;;;;;;20.64;51.64;100871.50;2074157;28;19920;-64
2021/11/18 00:01:51;;;;;;;;;;;;;;;20.64;51.66;100872.34;2069779;28;20785;-63
2021/11/18 00:02:51;;;;;;;;;;;;;;;20.65;51.47;100865.88;2074309;28;19916;-63
2021/11/18 00:03:52;;;;;;;;;;;;;;;20.67;51.74;100868.47;2075949;28;20011;-63
2021/11/18 00:04:54;;;;;;;;;;;;;;;20.68;51.64;100867.47;2070187;28;20315;-63
2021/11/18 00:05:55;;;;;;;;;;;;;;;20.68;51.73;100867.47;2076469;28;20364;-64
2021/11/18 00:06:56;;;;;;;;;;;;;;;20.67;51.74;100865.72;2075654;28;20351;-63
2021/11/18 00:07:56;;;;;;;;;;;;;;;20.65;51.71;100873.22;2074145;28;20291;-63
2021/11/18 00:08:57;;;;;;;;;;;;;;;20.55;51.74;100871.34;2075840;28;19955;-63
2021/11/18 00:09:57;;;;;;;;;;;;;;;20.55;51.91;100868.59;2076205;28;20509;-62
2021/11/18 00:11:03;;;;;;;;;;;;;;;20.58;51.67;100877.53;2071569;28;19970;-63
2021/11/18 00:12:06;;;;;;;;;;;;;;;20.58;51.80;100875.69;2073611;28;20003;-62
2021/11/18 00:13:08;;;;;;;;;;;;;;;20.59;51.73;100869.19;2075690;28;19909;-63
2021/11/18 00:14:08;;;;;;;;;;;;;;;20.61;51.75;100871.78;2075776;28;19931;-63
2021/11/18 00:15:09;;;;;;;;;;;;;;;20.62;51.63;100879.84;2075932;28;19920;-62
2021/11/18 00:16:09;;;;;;;;;;;;;;;20.65;51.51;100873.22;2075383;28;20016;-63
2021/11/18 00:17:09;;;;;;;;;;;;;;;20.67;51.75;100876.69;2076221;28;19908;-63
2021/11/18 00:18:11;;;;;;;;;;;;;;;20.68;51.73;100878.44;2071353;28;19917;-63
2021/11/18 00:19:12;;;;;;;;;;;;;;;20.68;51.69;100873.81;2072135;28;19909;-64
2021/11/18 00:20:14;;;;;;;;;;;;;;;20.69;51.72;100871.94;2067357;28;19924;-63
2021/11/18 00:21:23;;;;;;;;;;;;;;;20.70;51.68;100866.31;2064991;28;19917;-63
2021/11/18 00:22:23;;;;;;;;;;;;;;;20.70;51.57;100871.81;2066288;28;19963;-62
2021/11/18 00:23:25;;;;;;;;;;;;;;;20.72;51.58;100867.03;2076306;28;19915;-63
2021/11/18 00:24:25;;;;;;;;;;;;;;;20.72;51.49;100864.28;2065099;28;19918;-62
2021/11/18 00:25:26;;;;;;;;;;;;;;;20.74;51.59;100866.88;2064417;28;19917;-62
2021/11/18 00:26:28;;;;;;;;;;;;;;;20.73;51.34;100859.69;2073305;28;20315;-62
2021/11/18 00:27:28;;;;;;;;;;;;;;;20.73;51.41;100866.03;2065399;28;19949;-63
2021/11/18 00:28:28;;;;;;;;;;;;;;;20.72;51.51;100875.25;2064260;28;20364;-63
2021/11/18 00:29:29;;;;;;;;;;;;;;;20.73;51.26;100862.44;2074487;28;20835;-62
2021/11/18 00:30:29;;;;;;;;;;;;;;;20.73;51.32;100865.16;2074606;28;19905;-63
2021/11/18 00:31:32;;;;;;;;;;;;;;;20.74;51.44;100866.88;2070801;28;19955;-62
2021/11/18 00:32:32;;;;;;;;;;;;;;;20.75;51.31;100874.13;2074924;28;21037;-64
2021/11/18 00:33:33;;;;;;;;;;;;;;;20.74;51.13;100866.88;2075763;28;19966;-64
2021/11/18 00:34:33;;;;;;;;;;;;;;;20.74;51.39;100867.75;2071448;28;19959;-64
2021/11/18 00:35:34;;;;;;;;;;;;;;;20.74;51.11;100867.75;2072295;28;20390;-63
2021/11/18 00:36:35;;;;;;;;;;;;;;;20.73;51.29;100859.69;2074701;28;19908;-63
2021/11/18 00:37:35;;;;;;;;;;;;;;;20.75;51.29;100857.69;2073926;28;20278;-64
2021/11/18 00:38:36;;;;;;;;;;;;;;;20.74;51.25;100858.66;2074379;28;20020;-64
2021/11/18 00:39:37;;;;;;;;;;;;;;;20.73;51.13;100863.28;2073525;28;19913;-64
2021/11/18 00:40:39;;;;;;;;;;;;;;;20.73;51.35;100867.91;2072215;28;20002;-64
2021/11/18 00:41:39;;;;;;;;;;;;;;;20.75;51.20;100865.91;2075902;28;20688;-64
2021/11/18 00:42:40;;;;;;;;;;;;;;;20.71;51.26;100856.22;2074562;28;20291;-63
2021/11/18 00:43:40;;;;;;;;;;;;;;;20.75;51.32;100864.03;2073312;28;19931;-63
2021/11/18 00:44:41;;;;;;;;;;;;;;;20.77;51.19;100864.75;2073835;28;19959;-64
2021/11/18 00:45:42;;;;;;;;;;;;;;;20.75;51.36;100861.28;2073518;28;19955;-64
2021/11/18 00:46:42;;;;;;;;;;;;;;;20.75;51.29;100863.16;2075080;28;20011;-63
2021/11/18 00:47:42;;;;;;;;;;;;;;;20.74;51.46;100866.88;2066802;28;20307;-63
2021/11/18 00:48:43;;;;;;;;;;;;;;;20.75;51.51;100860.41;2060966;28;19921;-63
2021/11/18 00:49:43;;;;;;;;;;;;;;;20.75;51.48;100868.66;2069107;28;19913;-63
2021/11/18 00:50:47;;;;;;;;;;;;;;;20.73;51.52;100867.91;2076440;28;19920;-64
2021/11/18 00:51:48;;;;;;;;;;;;;;;20.73;51.61;100865.16;2073726;28;20263;-64
2021/11/18 00:52:49;;;;;;;;;;;;;;;20.73;51.58;100865.16;2072311;28;19917;-63
2021/11/18 00:53:51;;;;;;;;;;;;;;;20.72;51.29;100864.28;2068420;28;19920;-63
2021/11/18 00:54:51;;;;;;;;;;;;;;;20.73;51.33;100862.44;2068367;28;19920;-63
2021/11/18 00:55:52;;;;;;;;;;;;;;;20.72;51.49;100857.94;2075984;28;19931;-64
2021/11/18 00:56:52;;;;;;;;;;;;;;;20.73;51.50;100862.44;2075359;28;19916;-64
2021/11/18 00:57:53;;;;;;;;;;;;;;;20.72;51.51;100863.41;2073648;28;20623;-64
2021/11/18 00:58:55;;;;;;;;;;;;;;;20.72;51.62;100863.41;2075743;28;19917;-64
2021/11/18 00:59:55;;;;;;;;;;;;;;;20.71;51.59;100856.22;2073770;28;19916;-64
2021/11/18 01:00:55;;;;;;;;;;;;;;;20.71;51.52;100862.56;2078678;28;19954;-63
2021/11/18 01:01:56;;;;;;;;;;;;;;;20.71;51.62;100865.31;2073303;28;19927;-64
2021/11/18 01:02:58;;;;;;;;;;;;;;;20.71;51.61;100865.31;2075087;28;19923;-63
2021/11/18 01:03:58;;;;;;;;;;;;;;;20.71;51.32;100856.22;2065096;28;19926;-64
2021/11/18 01:04:59;;;;;;;;;;;;;;;20.71;51.56;100861.69;2066505;28;19913;-64
2021/11/18 01:05:59;;;;;;;;;;;;;;;20.73;51.67;100856.94;2062023;28;19952;-62
2021/11/18 01:07:00;;;;;;;;;;;;;;;20.72;51.65;100852.47;2065726;28;19921;-63
2021/11/18 01:08:00;;;;;;;;;;;;;;;20.71;51.52;100857.09;2070579;28;19992;-63
2021/11/18 01:09:01;;;;;;;;;;;;;;;20.71;51.60;100853.47;2074040;28;19928;-63
2021/11/18 01:10:04;;;;;;;;;;;;;;;20.72;51.67;100860.69;2071249;28;19917;-63
2021/11/18 01:11:07;;;;;;;;;;;;;;;20.71;51.55;100856.22;2074992;28;19921;-63
2021/11/18 01:12:08;;;;;;;;;;;;;;;20.70;51.70;100854.47;2072061;28;19974;-63
2021/11/18 01:13:09;;;;;;;;;;;;;;;20.71;51.38;100857.09;2076110;28;19909;-62
2021/11/18 01:14:12;;;;;;;;;;;;;;;20.72;51.60;100863.41;2075385;28;19974;-62
2021/11/18 01:15:15;;;;;;;;;;;;;;;20.71;51.51;100856.22;2074086;28;20423;-62
2021/11/18 01:16:18;;;;;;;;;;;;;;;20.70;51.47;100852.63;2074981;28;20594;-63
2021/11/18 01:17:18;;;;;;;;;;;;;;;20.71;51.46;100850.75;2074636;28;20027;-62
2021/11/18 01:18:19;;;;;;;;;;;;;;;20.70;51.67;100857.22;2075551;28;19909;-63
2021/11/18 01:19:20;;;;;;;;;;;;;;;20.71;51.66;100851.59;2071777;28;19920;-64
2021/11/18 01:20:23;;;;;;;;;;;;;;;20.71;51.43;100856.22;2074125;28;19916;-64
2021/11/18 01:21:24;;;;;;;;;;;;;;;20.70;51.63;100849.88;2071799;28;19917;-64
2021/11/18 01:22:24;;;;;;;;;;;;;;;20.70;51.41;100849.00;2071825;28;19912;-64
2021/11/18 01:23:26;;;;;;;;;;;;;;;20.71;51.53;100842.53;2074723;28;19924;-65
2021/11/18 01:24:27;;;;;;;;;;;;;;;20.71;51.57;100851.59;2077468;28;20429;-64
2021/11/18 01:25:28;;;;;;;;;;;;;;;20.68;51.47;100851.03;2076630;28;19917;-65
2021/11/18 01:26:28;;;;;;;;;;;;;;;20.66;51.66;100848.44;2074068;28;19916;-63
2021/11/18 01:27:28;;;;;;;;;;;;;;;20.62;51.62;100846.09;2076663;28;19945;-62
2021/11/18 01:28:29;;;;;;;;;;;;;;;20.59;51.84;100852.75;2070030;28;19952;-63
2021/11/18 01:29:29;;;;;;;;;;;;;;;20.55;51.59;100846.69;2075786;28;19913;-63
2021/11/18 01:30:30;;;;;;;;;;;;;;;20.52;51.69;100846.91;2071578;28;19920;-63
2021/11/18 01:31:31;;;;;;;;;;;;;;;20.51;51.84;100842.47;2076727;28;19921;-63
2021/11/18 01:32:32;;;;;;;;;;;;;;;20.49;51.58;100852.69;2078430;28;19921;-63
2021/11/18 01:33:33;;;;;;;;;;;;;;;20.48;51.92;100850.06;2076837;28;19917;-64
2021/11/18 01:34:33;;;;;;;;;;;;;;;20.47;51.98;100851.09;2074543;28;20062;-63
2021/11/18 01:35:34;;;;;;;;;;;;;;;20.44;51.90;100849.50;2074964;28;19913;-63
2021/11/18 01:36:35;;;;;;;;;;;;;;;20.45;52.02;100855.84;2078299;28;20509;-63
2021/11/18 01:37:35;;;;;;;;;;;;;;;20.43;52.09;100850.53;2072786;28;19975;-63
2021/11/18 01:38:36;;;;;;;;;;;;;;;20.42;52.15;100857.00;2067463;28;20581;-63
2021/11/18 01:39:37;;;;;;;;;;;;;;;20.42;52.19;100861.59;2057745;28;20330;-64
2021/11/18 01:40:39;;;;;;;;;;;;;;;20.43;51.98;100863.31;2067590;28;19952;-63
2021/11/18 01:41:41;;;;;;;;;;;;;;;20.42;52.19;100864.34;2069893;28;19967;-64
2021/11/18 01:42:41;;;;;;;;;;;;;;;20.41;52.02;100862.63;2075574;28;19959;-63
2021/11/18 01:43:44;;;;;;;;;;;;;;;20.41;52.01;100860.75;2076714;28;19917;-64
2021/11/18 01:44:47;;;;;;;;;;;;;;;20.39;52.01;100862.75;2070705;28;19968;-63
2021/11/18 01:45:47;;;;;;;;;;;;;;;20.38;52.35;100866.47;2075398;28;19913;-64
2021/11/18 01:46:47;;;;;;;;;;;;;;;20.40;52.38;100869.94;2075355;28;19955;-63
2021/11/18 01:47:48;;;;;;;;;;;;;;;20.39;52.20;100872.84;2074079;28;20009;-63
2021/11/18 01:48:49;;;;;;;;;;;;;;;20.37;52.07;100862.03;2076816;28;19917;-64
2021/11/18 01:49:50;;;;;;;;;;;;;;;20.37;52.24;100864.75;2072811;28;19929;-64
2021/11/18 01:50:52;;;;;;;;;;;;;;;20.38;52.12;100865.63;2074839;28;19917;-63
2021/11/18 01:51:54;;;;;;;;;;;;;;;20.37;52.47;100866.66;2071427;28;19917;-64
2021/11/18 01:52:55;;;;;;;;;;;;;;;20.36;52.27;100863.03;2065256;28;20032;-64
2021/11/18 01:53:55;;;;;;;;;;;;;;;20.34;52.28;100865.91;2067589;28;19916;-63
2021/11/18 01:54:58;;;;;;;;;;;;;;;20.34;52.42;100862.31;2073341;28;20387;-63
2021/11/18 01:55:58;;;;;;;;;;;;;;;20.34;52.48;100859.56;2072907;28;19928;-63
2021/11/18 01:56:59;;;;;;;;;;;;;;;20.33;52.40;100858.72;2072160;28;19921;-64
2021/11/18 01:57:59;;;;;;;;;;;;;;;20.33;52.49;100863.28;2074886;28;19917;-64
2021/11/18 01:59:14;;;;;;;;;;;;;;;20.33;52.38;100857.81;2075817;28;19924;-63
2021/11/18 02:00:19;;;;;;;;;;;;;;;20.32;52.31;100861.56;2075846;28;20288;-63
2021/11/18 02:01:20;;;;;;;;;;;;;;;20.31;52.29;100862.59;2073240;28;19917;-63
2021/11/18 02:02:22;;;;;;;;;;;;;;;20.32;52.47;100858.84;2073601;28;20024;-63
2021/11/18 02:03:23;;;;;;;;;;;;;;;20.31;52.43;100852.50;2074891;28;20310;-63
2021/11/18 02:04:25;;;;;;;;;;;;;;;20.31;52.55;100863.47;2076211;28;19970;-63
2021/11/18 02:05:28;;;;;;;;;;;;;;;20.30;52.37;100858.97;2072424;28;19921;-63
2021/11/18 02:06:30;;;;;;;;;;;;;;;20.31;52.41;100860.72;2075391;28;19924;-64
2021/11/18 02:07:31;;;;;;;;;;;;;;;20.30;52.59;100852.63;2076460;28;19924;-63
2021/11/18 02:08:31;;;;;;;;;;;;;;;20.29;52.55;100856.38;2071854;28;19916;-63
2021/11/18 02:09:39;;;;;;;;;;;;;;;20.29;52.44;100848.19;2072997;28;19959;-63
2021/11/18 02:10:41;;;;;;;;;;;;;;;20.28;52.44;100857.38;2072291;28;19924;-63
2021/11/18 02:11:44;;;;;;;;;;;;;;;20.29;52.47;100856.38;2066719;28;20718;-63
2021/11/18 02:12:44;;;;;;;;;;;;;;;20.28;52.47;100862.84;2063808;28;19917;-63
2021/11/18 02:13:44;;;;;;;;;;;;;;;20.28;52.63;100858.25;2075839;28;19913;-63
2021/11/18 02:14:45;;;;;;;;;;;;;;;20.27;52.45;100861.13;2077335;28;19982;-64
2021/11/18 02:15:50;;;;;;;;;;;;;;;20.26;52.66;100859.38;2076426;28;20793;-63
2021/11/18 02:16:53;;;;;;;;;;;;;;;20.26;52.71;100856.66;2072673;28;19916;-63
2021/11/18 02:17:53;;;;;;;;;;;;;;;20.26;52.53;100864.84;2067039;28;19950;-63
2021/11/18 02:18:54;;;;;;;;;;;;;;;20.26;52.73;100856.66;2076562;28;19952;-63
2021/11/18 02:19:56;;;;;;;;;;;;;;;20.25;52.55;100860.41;2075526;28;20024;-63
2021/11/18 02:20:59;;;;;;;;;;;;;;;20.26;52.62;100856.66;2073327;28;19908;-63
2021/11/18 02:21:59;;;;;;;;;;;;;;;20.25;52.64;100857.66;2075253;28;19966;-63
2021/11/18 02:22:59;;;;;;;;;;;;;;;20.23;52.58;100855.06;2073082;28;19970;-63
2021/11/18 02:24:01;;;;;;;;;;;;;;;20.24;52.57;100858.69;2075644;28;20027;-63
2021/11/18 02:25:04;;;;;;;;;;;;;;;20.24;52.82;100865.03;2073813;28;20017;-63
2021/11/18 02:26:05;;;;;;;;;;;;;;;20.24;52.55;100858.69;2075000;28;19924;-63
2021/11/18 02:27:05;;;;;;;;;;;;;;;20.23;52.66;100856.94;2077056;28;19923;-63
2021/11/18 02:28:06;;;;;;;;;;;;;;;20.22;52.71;100855.22;2076839;28;19924;-63
2021/11/18 02:29:07;;;;;;;;;;;;;;;20.22;52.83;100855.22;2081716;28;19915;-63
2021/11/18 02:30:09;;;;;;;;;;;;;;;20.21;52.76;100848.00;2069391;28;20284;-63
2021/11/18 02:31:18;;;;;;;;;;;;;;;20.22;52.75;100855.22;2074932;28;20399;-63
2021/11/18 02:32:20;;;;;;;;;;;;;;;20.21;52.72;100851.63;2070889;28;19927;-63
2021/11/18 02:33:21;;;;;;;;;;;;;;;20.21;52.83;100846.16;2071112;28;19917;-64
2021/11/18 02:34:26;;;;;;;;;;;;;;;20.21;52.93;100848.00;2072710;28;20559;-63
2021/11/18 02:35:28;;;;;;;;;;;;;;;20.21;52.91;100848.00;2077061;28;19927;-64
2021/11/18 02:36:28;;;;;;;;;;;;;;;20.21;52.90;100858.94;2074463;28;20813;-63
2021/11/18 02:37:29;;;;;;;;;;;;;;;20.21;52.95;100848.00;2076809;28;20299;-64
2021/11/18 02:38:29;;;;;;;;;;;;;;;20.20;52.75;100851.75;2074119;28;19928;-63
2021/11/18 02:39:30;;;;;;;;;;;;;;;20.19;52.80;100847.28;2073698;28;19928;-64
2021/11/18 02:40:30;;;;;;;;;;;;;;;20.18;52.88;100840.91;2075505;28;19909;-63
2021/11/18 02:41:30;;;;;;;;;;;;;;;20.18;53.04;100846.41;2077726;28;19913;-63
2021/11/18 02:42:31;;;;;;;;;;;;;;;20.18;52.84;100848.28;2077686;28;19917;-63
2021/11/18 02:43:31;;;;;;;;;;;;;;;20.18;53.04;100848.28;2071607;28;19927;-64
2021/11/18 02:44:32;;;;;;;;;;;;;;;20.17;53.03;100847.41;2079604;28;19921;-64
2021/11/18 02:45:36;;;;;;;;;;;;;;;20.17;53.10;100847.41;2072121;28;20402;-63
2021/11/18 02:46:36;;;;;;;;;;;;;;;20.17;52.89;100841.06;2074955;28;20379;-63
2021/11/18 02:47:37;;;;;;;;;;;;;;;20.16;52.91;100847.53;2070171;28;20620;-64
2021/11/18 02:48:37;;;;;;;;;;;;;;;20.15;52.97;100843.09;2078472;28;20673;-63
2021/11/18 02:49:39;;;;;;;;;;;;;;;20.14;52.97;100842.22;2074846;28;19916;-64
2021/11/18 02:50:41;;;;;;;;;;;;;;;20.16;52.91;100842.06;2075307;28;19921;-64
2021/11/18 02:51:41;;;;;;;;;;;;;;;20.15;53.12;100848.56;2072190;28;19917;-64
2021/11/18 02:52:42;;;;;;;;;;;;;;;20.15;53.16;100845.81;2076700;28;20006;-64
2021/11/18 02:53:43;;;;;;;;;;;;;;;20.15;52.95;100849.41;2072407;28;19917;-64
2021/11/18 02:54:43;;;;;;;;;;;;;;;20.14;52.94;100839.50;2073690;28;19917;-64
2021/11/18 02:55:45;;;;;;;;;;;;;;;20.13;52.99;100848.69;2067675;28;19929;-65
2021/11/18 02:56:46;;;;;;;;;;;;;;;20.14;53.16;100847.69;2071531;28;20697;-65
2021/11/18 02:57:46;;;;;;;;;;;;;;;20.13;53.04;100851.44;2076899;28;19924;-65
2021/11/18 02:58:48;;;;;;;;;;;;;;;20.12;53.09;100850.56;2072753;28;19920;-64
2021/11/18 02:59:48;;;;;;;;;;;;;;;20.12;53.00;100853.31;2075211;28;20408;-65
2021/11/18 03:00:54;;;;;;;;;;;;;;;20.12;53.17;100850.56;2076276;28;19905;-65
2021/11/18 03:01:54;;;;;;;;;;;;;;;20.12;52.96;100850.56;2079416;28;19916;-64
2021/11/18 03:02:55;;;;;;;;;;;;;;;20.12;53.08;100846.97;2074065;28;19917;-65
2021/11/18 03:03:55;;;;;;;;;;;;;;;20.12;53.13;100844.22;2072462;28;19960;-64
2021/11/18 03:04:56;;;;;;;;;;;;;;;20.11;53.24;100847.94;2074305;28;19920;-64
2021/11/18 03:05:57;;;;;;;;;;;;;;;20.11;53.07;100837.91;2069187;28;19913;-63
2021/11/18 03:07:00;;;;;;;;;;;;;;;20.10;53.14;100841.63;2075121;28;19917;-64
2021/11/18 03:08:00;;;;;;;;;;;;;;;20.11;53.13;100842.47;2075332;28;19912;-64
2021/11/18 03:09:00;;;;;;;;;;;;;;;20.10;53.22;100838.88;2076146;28;20731;-64
2021/11/18 03:10:01;;;;;;;;;;;;;;;20.09;53.28;100839.91;2074344;28;19925;-64
2021/11/18 03:11:02;;;;;;;;;;;;;;;20.09;53.06;100828.94;2073727;28;19957;-64
2021/11/18 03:12:03;;;;;;;;;;;;;;;20.08;53.21;100832.69;2073597;28;19917;-64
2021/11/18 03:13:04;;;;;;;;;;;;;;;20.09;53.25;100830.84;2075900;28;20603;-64
2021/11/18 03:14:04;;;;;;;;;;;;;;;20.09;53.27;100834.44;2078425;28;19917;-64
2021/11/18 03:15:06;;;;;;;;;;;;;;;20.09;53.17;100826.22;2075332;28;19917;-64
2021/11/18 03:16:08;;;;;;;;;;;;;;;20.09;53.35;100828.09;2076546;28;19982;-64
2021/11/18 03:17:08;;;;;;;;;;;;;;;20.09;53.15;100818.00;2075787;28;19943;-64
2021/11/18 03:18:08;;;;;;;;;;;;;;;20.09;53.35;100823.47;2077401;28;19913;-64
2021/11/18 03:19:08;;;;;;;;;;;;;;;20.10;53.15;100825.19;2075871;28;19916;-64
2021/11/18 03:20:11;;;;;;;;;;;;;;;20.10;53.20;100830.66;2078186;28;20713;-64
2021/11/18 03:21:14;;;;;;;;;;;;;;;20.11;53.14;100829.69;2075842;28;19917;-64
2021/11/18 03:22:14;;;;;;;;;;;;;;;20.11;53.21;100826.94;2074907;28;20306;-64
2021/11/18 03:23:15;;;;;;;;;;;;;;;20.12;53.14;100830.53;2078148;28;19972;-64
2021/11/18 03:24:15;;;;;;;;;;;;;;;20.13;53.14;100830.38;2073840;28;19947;-64
2021/11/18 03:25:17;;;;;;;;;;;;;;;20.13;53.09;100824.91;2076415;28;19931;-64
2021/11/18 03:26:19;;;;;;;;;;;;;;;20.13;53.11;100824.91;2074628;28;19924;-64
2021/11/18 03:27:19;;;;;;;;;;;;;;;20.13;53.04;100824.91;2077411;28;20142;-64
2021/11/18 03:28:22;;;;;;;;;;;;;;;20.15;53.21;100829.41;2069061;28;19909;-64
2021/11/18 03:29:23;;;;;;;;;;;;;;;20.15;53.06;100821.19;2064876;28;19966;-64
2021/11/18 03:30:26;;;;;;;;;;;;;;;20.15;53.02;100823.94;2077600;28;20322;-64
2021/11/18 03:31:27;;;;;;;;;;;;;;;20.15;53.18;100821.19;2076853;28;20085;-64
2021/11/18 03:32:27;;;;;;;;;;;;;;;20.15;53.07;100822.03;2077832;28;19990;-64
2021/11/18 03:33:32;;;;;;;;;;;;;;;20.15;53.04;100826.66;2077666;28;20565;-64
2021/11/18 03:34:33;;;;;;;;;;;;;;;20.15;53.21;100832.13;2076236;28;20338;-62
2021/11/18 03:35:33;;;;;;;;;;;;;;;20.15;53.11;100823.94;2076653;28;20007;-63
2021/11/18 03:36:36;;;;;;;;;;;;;;;20.15;52.97;100832.13;2078596;28;20027;-62
2021/11/18 03:37:36;;;;;;;;;;;;;;;20.13;53.05;100830.38;2075076;28;19940;-63
2021/11/18 03:38:37;;;;;;;;;;;;;;;20.12;52.96;100817.72;2076133;28;19974;-63
2021/11/18 03:39:39;;;;;;;;;;;;;;;20.13;53.16;100830.38;2078358;28;19917;-64
2021/11/18 03:40:40;;;;;;;;;;;;;;;20.13;52.98;100824.06;2075819;28;19988;-63
2021/11/18 03:41:42;;;;;;;;;;;;;;;20.12;53.16;100828.66;2077372;28;19927;-63
2021/11/18 03:42:42;;;;;;;;;;;;;;;20.12;52.98;100828.66;2074547;28;20011;-63
2021/11/18 03:43:49;;;;;;;;;;;;;;;20.11;53.10;100818.75;2077870;28;19917;-63
2021/11/18 03:44:49;;;;;;;;;;;;;;;20.11;53.02;100821.47;2076662;28;20003;-63
2021/11/18 03:45:49;;;;;;;;;;;;;;;20.10;52.99;100827.94;2073666;28;19924;-63
2021/11/18 03:47:04;;;;;;;;;;;;;;;20.11;53.07;100817.84;2076838;28;19923;-63
2021/11/18 03:48:06;;;;;;;;;;;;;;;20.11;53.21;100823.31;2074819;28;19916;-63
2021/11/18 03:49:07;;;;;;;;;;;;;;;20.10;53.16;100819.72;2074110;28;19924;-63
2021/11/18 03:50:08;;;;;;;;;;;;;;;20.09;53.17;100820.75;2078792;28;20007;-63
2021/11/18 03:51:10;;;;;;;;;;;;;;;20.09;53.34;100818.00;2064763;28;19924;-63
2021/11/18 03:52:12;;;;;;;;;;;;;;;20.09;53.11;100822.63;2069805;28;19939;-63
2021/11/18 03:53:13;;;;;;;;;;;;;;;20.09;52.99;100823.47;2076113;28;20024;-63
2021/11/18 03:54:14;;;;;;;;;;;;;;;20.08;53.08;100827.19;2072782;28;19936;-63
2021/11/18 03:55:16;;;;;;;;;;;;;;;20.08;53.16;100823.59;2073090;28;19912;-62
2021/11/18 03:56:19;;;;;;;;;;;;;;;20.07;53.13;100825.47;2074308;28;20019;-62
2021/11/18 03:57:19;;;;;;;;;;;;;;;20.07;53.13;100830.09;2073535;28;19965;-62
2021/11/18 03:58:20;;;;;;;;;;;;;;;20.06;53.26;100828.34;2077600;28;19923;-63
2021/11/18 03:59:22;;;;;;;;;;;;;;;20.06;53.34;100831.97;2072159;28;20003;-63
2021/11/18 04:00:28;;;;;;;;;;;;;;;20.05;53.15;100827.50;2078271;28;20415;-63
2021/11/18 04:01:28;;;;;;;;;;;;;;;20.05;53.29;100832.97;2076088;28;20957;-63
2021/11/18 04:02:28;;;;;;;;;;;;;;;20.05;53.29;100830.22;2077383;28;19939;-63
2021/11/18 04:03:29;;;;;;;;;;;;;;;20.04;53.29;100831.25;2075515;28;19989;-63
2021/11/18 04:04:31;;;;;;;;;;;;;;;20.04;53.38;100833.97;2074922;28;19924;-63
2021/11/18 04:05:32;;;;;;;;;;;;;;;20.04;53.33;100830.34;2077228;28;19943;-63
2021/11/18 04:06:32;;;;;;;;;;;;;;;20.04;53.24;100825.78;2074912;28;19943;-63
2021/11/18 04:07:38;;;;;;;;;;;;;;;20.04;53.21;100828.50;2077555;28;19925;-63
2021/11/18 04:08:39;;;;;;;;;;;;;;;20.04;53.34;100824.88;2070034;28;19913;-63
2021/11/18 04:09:40;;;;;;;;;;;;;;;20.03;53.47;100824.03;2074254;28;19998;-63
2021/11/18 04:10:41;;;;;;;;;;;;;;;20.02;53.33;100830.50;2076439;28;19974;-63
2021/11/18 04:11:42;;;;;;;;;;;;;;;20.02;53.39;100827.78;2075160;28;19916;-62
2021/11/18 04:12:43;;;;;;;;;;;;;;;20.01;53.49;100831.50;2074787;28;19917;-64
2021/11/18 04:13:44;;;;;;;;;;;;;;;20.01;53.35;100831.50;2074256;28;19967;-63
2021/11/18 04:14:45;;;;;;;;;;;;;;;20.01;53.46;100831.50;2066103;28;19917;-63
2021/11/18 04:15:49;;;;;;;;;;;;;;;20.01;53.54;100826.03;2067704;28;20008;-63
2021/11/18 04:16:49;;;;;;;;;;;;;;;20.02;53.50;100827.78;2077147;28;19920;-62
2021/11/18 04:17:50;;;;;;;;;;;;;;;20.01;53.41;100825.16;2073473;28;20693;-63
2021/11/18 04:18:50;;;;;;;;;;;;;;;19.99;53.57;100825.31;2074545;28;19921;-63
2021/11/18 04:19:51;;;;;;;;;;;;;;;20.00;53.49;100827.03;2076899;28;19923;-63
2021/11/18 04:20:52;;;;;;;;;;;;;;;20.00;53.66;100828.91;2075998;28;19916;-63
2021/11/18 04:21:52;;;;;;;;;;;;;;;20.00;53.53;100828.91;2075772;28;20053;-63
2021/11/18 04:22:54;;;;;;;;;;;;;;;19.99;53.65;100830.78;2074958;28;20516;-63
2021/11/18 04:23:54;;;;;;;;;;;;;;;19.99;53.63;100827.16;2074612;28;19920;-63
2021/11/18 04:24:54;;;;;;;;;;;;;;;19.99;53.51;100827.16;2077153;28;19916;-63
2021/11/18 04:25:55;;;;;;;;;;;;;;;19.98;53.70;100834.50;2073238;28;20806;-63
2021/11/18 04:26:55;;;;;;;;;;;;;;;19.98;53.67;100826.31;2075057;28;20276;-63
2021/11/18 04:27:56;;;;;;;;;;;;;;;19.98;53.55;100829.03;2079056;28;20303;-64
2021/11/18 04:28:57;;;;;;;;;;;;;;;19.98;53.57;100825.44;2073503;28;19940;-64
2021/11/18 04:29:58;;;;;;;;;;;;;;;19.99;53.63;100827.16;2077474;28;19912;-64
2021/11/18 04:31:00;;;;;;;;;;;;;;;19.98;53.57;100828.19;2074634;28;19917;-64
2021/11/18 04:32:04;;;;;;;;;;;;;;;19.97;53.55;100821.84;2074830;28;19967;-64
2021/11/18 04:33:04;;;;;;;;;;;;;;;19.96;53.74;100833.78;2068631;28;20380;-64
2021/11/18 04:34:06;;;;;;;;;;;;;;;19.97;53.83;100835.53;2078210;28;20294;-64
2021/11/18 04:35:07;;;;;;;;;;;;;;;19.96;53.53;100833.78;2078123;28;20003;-64
2021/11/18 04:36:09;;;;;;;;;;;;;;;19.96;53.79;100835.66;2075221;28;19920;-64
2021/11/18 04:37:10;;;;;;;;;;;;;;;19.96;53.79;100842.00;2072074;28;19913;-64
2021/11/18 04:38:10;;;;;;;;;;;;;;;19.96;53.77;100843.88;2072000;28;19917;-64
2021/11/18 04:39:11;;;;;;;;;;;;;;;19.95;53.63;100840.28;2070034;28;20148;-64
2021/11/18 04:40:12;;;;;;;;;;;;;;;19.95;53.68;100840.28;2072346;28;20103;-64
2021/11/18 04:41:13;;;;;;;;;;;;;;;19.94;53.66;100846.72;2084277;28;19963;-64
2021/11/18 04:42:14;;;;;;;;;;;;;;;19.93;53.70;100834.06;2072343;28;19921;-64
2021/11/18 04:43:14;;;;;;;;;;;;;;;19.93;53.74;100839.53;2071815;28;19963;-64
2021/11/18 04:44:15;;;;;;;;;;;;;;;19.93;53.72;100839.53;2070061;28;20276;-64
2021/11/18 04:45:17;;;;;;;;;;;;;;;19.93;53.76;100842.28;2075360;28;19962;-59
2021/11/18 04:46:17;;;;;;;;;;;;;;;19.92;53.71;100840.56;2081352;28;20305;-59
2021/11/18 04:47:18;;;;;;;;;;;;;;;19.92;53.87;100844.16;2066155;28;19928;-59
2021/11/18 04:48:19;;;;;;;;;;;;;;;19.92;53.78;100837.81;2068439;28;20376;-59
2021/11/18 04:49:19;;;;;;;;;;;;;;;19.93;53.88;100845.00;2076829;28;19917;-60
2021/11/18 04:50:20;;;;;;;;;;;;;;;19.91;53.76;100845.13;2073495;28;19951;-59
2021/11/18 04:51:22;;;;;;;;;;;;;;;19.92;53.78;100832.34;2075465;28;19917;-59
2021/11/18 04:52:22;;;;;;;;;;;;;;;19.92;53.82;100843.28;2074554;28;19925;-59
2021/11/18 04:53:26;;;;;;;;;;;;;;;19.91;53.83;100836.06;2065419;28;19999;-59
2021/11/18 04:54:26;;;;;;;;;;;;;;;19.91;53.91;100836.06;2067772;28;19912;-59
2021/11/18 04:55:27;;;;;;;;;;;;;;;19.90;53.76;100835.22;2074024;28;20225;-59
2021/11/18 04:56:28;;;;;;;;;;;;;;;19.91;53.81;100830.59;2072421;28;20030;-60
2021/11/18 04:57:28;;;;;;;;;;;;;;;19.90;53.77;100834.34;2076531;28;20590;-59
2021/11/18 04:58:29;;;;;;;;;;;;;;;19.90;53.90;100834.34;2074181;28;19917;-59
2021/11/18 04:59:29;;;;;;;;;;;;;;;19.89;53.93;100832.59;2073457;28;19924;-59
2021/11/18 05:00:33;;;;;;;;;;;;;;;19.89;53.83;100832.59;2073613;28;19920;-59
2021/11/18 05:01:37;;;;;;;;;;;;;;;19.90;53.85;100828.88;2073749;28;20011;-60
2021/11/18 05:02:37;;;;;;;;;;;;;;;19.89;53.79;100832.59;2068492;28;19917;-60
2021/11/18 05:03:38;;;;;;;;;;;;;;;19.89;53.91;100829.84;2055021;28;19968;-59
2021/11/18 05:04:38;;;;;;;;;;;;;;;19.88;53.91;100834.47;2066227;28;19968;-59
2021/11/18 05:05:39;;;;;;;;;;;;;;;19.88;53.95;100834.47;2073343;28;20193;-59
2021/11/18 05:06:40;;;;;;;;;;;;;;;19.88;53.85;100841.81;2070961;28;19917;-59
2021/11/18 05:07:40;;;;;;;;;;;;;;;19.87;53.84;100835.50;2073999;28;19923;-59
2021/11/18 05:08:41;;;;;;;;;;;;;;;19.88;53.83;100844.56;2061755;28;19927;-59
2021/11/18 05:09:41;;;;;;;;;;;;;;;19.87;53.79;100834.63;2066514;28;19967;-59
2021/11/18 05:10:43;;;;;;;;;;;;;;;19.87;53.80;100838.22;2074503;28;19916;-59
2021/11/18 05:11:44;;;;;;;;;;;;;;;19.88;53.86;100836.34;2073596;28;20313;-59
2021/11/18 05:12:44;;;;;;;;;;;;;;;19.87;53.89;100840.09;2074820;28;20090;-59
2021/11/18 05:13:45;;;;;;;;;;;;;;;19.87;53.78;100834.63;2076962;28;20309;-59
2021/11/18 05:14:45;;;;;;;;;;;;;;;19.87;53.85;100837.38;2076887;28;20427;-60